createdAt,value
2023-01-23T00:01:04.554Z,101367.66
2023-01-23T00:04:04.675Z,101360.81
2023-01-23T00:07:04.577Z,101366.78
2023-01-23T00:10:04.581Z,101347.91
2023-01-23T00:13:04.559Z,101360.53
2023-01-23T00:15:57.625Z,101358.06
2023-01-23T00:18:36.683Z,101365.66
2023-01-23T00:21:26.567Z,101358.06
2023-01-23T00:24:06.648Z,101365.69
2023-01-23T00:26:53.545Z,101364.84
2023-01-23T00:29:32.606Z,101351.34
2023-01-23T00:32:19.529Z,101353.81
2023-01-23T00:35:05.514Z,101378.28
2023-01-23T00:38:05.594Z,101371.38
2023-01-23T00:41:05.534Z,101374.75
2023-01-23T00:44:05.571Z,101377.41
2023-01-23T00:47:05.528Z,101373.84
2023-01-23T00:50:05.577Z,101372.34
2023-01-23T00:53:05.519Z,101369.91
2023-01-23T00:56:05.543Z,101374.25
2023-01-23T00:59:05.522Z,101381.22
2023-01-23T01:02:05.542Z,101374.31
2023-01-23T01:05:05.567Z,101371.78
2023-01-23T01:08:05.545Z,101369.19
2023-01-23T01:11:05.540Z,101362.59
2023-01-23T01:14:05.557Z,101365.06
2023-01-23T01:17:05.553Z,101374.31
2023-01-23T01:20:05.524Z,101365.69
2023-01-23T01:23:07.566Z,101378.50
2023-01-23T01:26:12.531Z,101384.53
2023-01-23T01:29:12.560Z,101381.09
2023-01-23T01:32:12.567Z,101375.19
2023-01-23T01:35:13.536Z,101397.28
2023-01-23T01:38:13.522Z,101387.00
2023-01-23T01:41:13.568Z,101390.28
2023-01-23T01:44:13.549Z,101391.94
2023-01-23T01:47:13.574Z,101391.03
2023-01-23T01:50:18.876Z,101384.81
2023-01-23T01:53:19.551Z,101387.56
2023-01-23T01:56:23.557Z,101394.28
2023-01-23T01:59:23.523Z,101395.09
2023-01-23T02:02:26.528Z,101401.06
2023-01-23T02:05:33.555Z,101405.50
2023-01-23T02:08:45.541Z,101400.34
2023-01-23T02:11:45.549Z,101405.38
2023-01-23T02:14:45.575Z,101390.91
2023-01-23T02:17:45.514Z,101405.38
2023-01-23T02:20:45.531Z,101406.41
2023-01-23T02:24:26.540Z,101402.97
2023-01-23T02:27:26.532Z,101411.66
2023-01-23T02:30:27.531Z,101374.12
2023-01-23T02:33:32.572Z,101401.47
2023-01-23T02:36:35.566Z,101410.00
2023-01-23T02:39:35.517Z,101395.63
2023-01-23T02:42:36.539Z,101409.06
2023-01-23T02:45:37.555Z,101406.53
2023-01-23T02:48:37.589Z,101414.28
2023-01-23T02:51:37.568Z,101418.72
2023-01-23T02:54:38.556Z,101416.94
2023-01-23T02:57:38.515Z,101421.31
2023-01-23T03:00:38.602Z,101424.81
2023-01-23T03:03:38.515Z,101437.69
2023-01-23T03:06:42.520Z,101437.03
2023-01-23T03:09:42.513Z,101381.59
2023-01-23T03:12:42.535Z,101432.72
2023-01-23T03:15:44.511Z,101425.81
2023-01-23T03:18:54.007Z,101426.69
2023-01-23T03:21:54.514Z,101405.44
2023-01-23T03:24:54.579Z,101393.50
2023-01-23T03:27:55.557Z,101399.63
2023-01-23T03:30:55.593Z,101419.22
2023-01-23T03:33:55.516Z,101404.62
2023-01-23T03:36:55.505Z,101408.09
2023-01-23T03:40:13.536Z,101407.16
2023-01-23T03:43:13.523Z,101416.56
2023-01-23T03:46:13.553Z,101411.53
2023-01-23T03:49:13.545Z,101407.16
2023-01-23T03:52:15.545Z,101409.75
2023-01-23T03:55:15.537Z,101409.78
2023-01-23T03:58:15.554Z,101409.78
2023-01-23T04:01:19.589Z,101414.00
2023-01-23T04:04:19.531Z,101411.47
2023-01-23T04:07:19.556Z,101414.22
2023-01-23T04:10:20.811Z,101419.47
2023-01-23T04:13:20.544Z,101403.34
2023-01-23T04:16:20.576Z,101412.66
2023-01-23T04:19:20.507Z,101419.75
2023-01-23T04:22:20.503Z,101412.91
2023-01-23T04:25:21.536Z,101395.16
2023-01-23T04:28:21.558Z,101385.56
2023-01-23T04:31:21.575Z,101405.28
2023-01-23T04:34:21.555Z,101398.38
2023-01-23T04:37:21.561Z,101414.69
2023-01-23T04:40:21.726Z,101416.31
2023-01-23T04:43:21.525Z,101411.12
2023-01-23T04:46:22.531Z,101408.50
2023-01-23T04:49:22.528Z,101419.91
2023-01-23T04:52:22.503Z,101413.25
2023-01-23T04:55:22.524Z,101412.25
2023-01-23T04:58:22.515Z,101424.31
2023-01-23T05:01:23.531Z,101422.50
2023-01-23T05:04:24.522Z,101411.41
2023-01-23T05:07:25.548Z,101439.66
2023-01-23T05:10:28.536Z,101426.84
2023-01-23T05:13:28.529Z,101447.44
2023-01-23T05:16:29.541Z,101422.81
2023-01-23T05:19:25.582Z,101446.72
2023-01-23T05:22:26.519Z,101451.03
2023-01-23T05:25:26.521Z,101443.28
2023-01-23T05:28:26.526Z,101445.00
2023-01-23T05:31:26.570Z,101440.75
2023-01-23T05:34:28.525Z,101419.25
2023-01-23T05:37:31.515Z,101442.47
2023-01-23T05:40:31.513Z,101416.91
2023-01-23T05:43:32.514Z,101455.34
2023-01-23T05:46:33.546Z,101463.03
2023-01-23T05:49:34.566Z,101452.19
2023-01-23T05:52:34.549Z,101468.34
2023-01-23T05:55:34.569Z,101472.69
2023-01-23T05:58:36.648Z,101476.22
2023-01-23T06:01:40.535Z,101470.87
2023-01-23T06:04:43.541Z,101491.50
2023-01-23T06:07:44.569Z,101481.22
2023-01-23T06:10:44.625Z,101488.13
2023-01-23T06:13:44.535Z,101506.94
2023-01-23T06:16:44.541Z,101506.09
2023-01-23T06:19:46.553Z,101497.59
2023-01-23T06:22:46.560Z,101524.09
2023-01-23T06:25:46.547Z,101511.91
2023-01-23T06:28:53.610Z,101473.56
2023-01-23T06:31:54.651Z,101510.88
2023-01-23T06:34:54.587Z,101506.59
2023-01-23T06:37:55.578Z,101526.28
2023-01-23T06:41:00.579Z,101520.16
2023-01-23T06:44:01.498Z,101525.16
2023-01-23T06:47:01.529Z,101516.41
2023-01-23T06:50:01.525Z,101531.03
2023-01-23T06:53:03.629Z,101524.94
2023-01-23T06:56:03.499Z,101498.19
2023-01-23T06:59:04.595Z,101541.63
2023-01-23T07:02:04.504Z,101551.19
2023-01-23T07:05:04.523Z,101536.81
2023-01-23T07:08:05.576Z,101547.97
2023-01-23T07:11:07.502Z,101536.97
2023-01-23T07:14:07.511Z,101548.00
2023-01-23T07:17:08.545Z,101480.63
2023-01-23T07:20:08.592Z,101550.59
2023-01-23T07:23:08.490Z,101515.59
2023-01-23T07:26:16.602Z,101549.69
2023-01-23T07:29:17.535Z,101532.66
2023-01-23T07:32:17.548Z,101545.19
2023-01-23T07:35:17.537Z,101556.34
2023-01-23T07:38:17.497Z,101551.06
2023-01-23T07:41:17.501Z,101550.94
2023-01-23T07:44:17.509Z,101561.12
2023-01-23T07:47:20.597Z,101556.47
2023-01-23T07:50:22.722Z,101534.28
2023-01-23T07:53:23.558Z,101528.13
2023-01-23T07:56:24.510Z,101551.00
2023-01-23T07:59:27.497Z,101559.16
2023-01-23T08:02:27.506Z,101563.16
2023-01-23T08:05:33.530Z,101565.31
2023-01-23T08:08:35.881Z,101565.25
2023-01-23T08:11:37.913Z,101574.50
2023-01-23T08:14:37.536Z,101571.03
2023-01-23T08:17:37.573Z,101564.72
2023-01-23T08:20:37.557Z,101576.75
2023-01-23T08:23:43.788Z,101568.56
2023-01-23T08:26:43.539Z,101569.41
2023-01-23T08:29:44.611Z,101585.50
2023-01-23T08:32:44.542Z,101584.56
2023-01-23T08:35:45.741Z,101568.84
2023-01-23T08:38:45.545Z,101589.97
2023-01-23T08:41:47.512Z,101587.03
2023-01-23T08:44:49.546Z,101601.12
2023-01-23T08:47:49.553Z,101593.37
2023-01-23T08:50:49.589Z,101568.28
2023-01-23T08:53:52.561Z,101585.38
2023-01-23T08:56:52.544Z,101592.66
2023-01-23T08:59:52.532Z,101595.75
2023-01-23T09:02:52.482Z,101580.81
2023-01-23T09:05:53.512Z,101585.22
2023-01-23T09:08:54.532Z,101590.44
2023-01-23T09:11:54.502Z,101593.91
2023-01-23T09:14:54.496Z,101592.31
2023-01-23T09:17:56.532Z,101581.41
2023-01-23T09:20:56.558Z,101598.63
2023-01-23T09:23:56.589Z,101599.91
2023-01-23T09:26:56.525Z,101590.03
2023-01-23T09:29:56.512Z,101598.38
2023-01-23T09:32:56.511Z,101587.66
2023-01-23T09:35:56.605Z,101584.97
2023-01-23T09:38:56.528Z,101582.13
2023-01-23T09:41:58.531Z,101587.47
2023-01-23T09:45:10.494Z,101579.72
2023-01-23T09:48:43.510Z,101589.44
2023-01-23T09:52:20.503Z,101596.34
2023-01-23T09:55:36.544Z,101602.34
2023-01-23T09:58:41.509Z,101604.22
2023-01-23T10:01:43.487Z,101585.41
2023-01-23T10:04:44.590Z,101594.94
2023-01-23T10:08:16.492Z,101594.53
2023-01-23T10:11:26.527Z,101589.56
2023-01-23T10:14:40.512Z,101576.53
2023-01-23T10:17:46.504Z,101589.50
2023-01-23T10:21:11.499Z,101582.06
2023-01-23T10:24:39.995Z,101575.03
2023-01-23T10:27:49.543Z,101575.84
2023-01-23T10:30:50.706Z,101575.16
2023-01-23T10:34:05.028Z,101571.34
2023-01-23T10:37:31.391Z,101572.00
2023-01-23T10:40:51.819Z,101549.59
2023-01-23T10:43:51.543Z,101559.09
2023-01-23T10:47:00.524Z,101559.13
2023-01-23T10:50:00.543Z,101525.47
2023-01-23T10:53:00.498Z,101550.91
2023-01-23T10:56:00.559Z,101520.16
2023-01-23T10:59:00.513Z,101546.97
2023-01-23T11:02:28.731Z,101544.06
2023-01-23T11:05:53.397Z,101536.53
2023-01-23T11:08:57.538Z,101549.66
2023-01-23T11:11:57.507Z,101546.88
2023-01-23T11:14:58.508Z,101543.66
2023-01-23T11:17:58.495Z,101540.28
2023-01-23T11:21:06.517Z,101537.66
2023-01-23T11:24:40.405Z,101543.41
2023-01-23T11:27:42.527Z,101534.44
2023-01-23T11:31:03.739Z,101526.72
2023-01-23T11:34:25.510Z,101522.38
2023-01-23T11:37:37.527Z,101519.28
2023-01-23T11:40:40.396Z,101517.09
2023-01-23T11:43:40.527Z,101516.31
2023-01-23T11:46:40.593Z,101491.63
2023-01-23T11:49:58.523Z,101519.81
2023-01-23T11:53:04.520Z,101506.34
2023-01-23T11:56:25.547Z,101512.88
2023-01-23T11:59:33.561Z,101515.03
2023-01-23T12:02:45.597Z,101513.00
2023-01-23T12:06:19.199Z,101499.09
2023-01-23T12:09:15.496Z,101487.00
2023-01-23T12:12:04.561Z,101504.13
2023-01-23T12:15:25.506Z,101507.97
2023-01-23T12:18:50.567Z,101496.66
2023-01-23T12:21:52.538Z,101499.53
2023-01-23T12:25:10.634Z,101499.69
2023-01-23T12:28:25.548Z,101498.13
2023-01-23T12:31:25.559Z,101483.16
2023-01-23T12:34:33.517Z,101486.00
2023-01-23T12:37:42.532Z,101479.53
2023-01-23T12:40:48.544Z,101490.78
2023-01-23T12:44:18.525Z,101471.78
2023-01-23T12:47:52.497Z,101507.72
2023-01-23T12:51:30.617Z,101501.50
2023-01-23T12:54:41.825Z,101493.00
2023-01-23T12:58:00.157Z,101444.34
2023-01-23T13:01:18.588Z,101508.03
2023-01-23T13:04:40.565Z,101499.09
2023-01-23T13:07:59.516Z,101487.53
2023-01-23T13:11:35.517Z,101478.84
2023-01-23T13:15:14.264Z,101491.59
2023-01-23T13:18:19.563Z,101487.63
2023-01-23T13:21:37.534Z,101484.37
2023-01-23T13:25:01.583Z,101494.41
2023-01-23T13:28:08.503Z,101490.81
2023-01-23T13:31:16.606Z,101490.06
2023-01-23T13:34:37.571Z,101491.37
2023-01-23T13:38:01.539Z,101496.31
2023-01-23T13:41:20.527Z,101489.47
2023-01-23T13:44:42.271Z,101505.28
2023-01-23T14:22:06.499Z,101493.09
2023-01-23T14:25:07.567Z,101513.00
2023-01-23T14:28:18.512Z,101507.91
2023-01-23T14:31:20.630Z,101503.88
2023-01-23T14:34:31.536Z,101503.44
2023-01-23T14:37:31.544Z,101509.00
2023-01-23T14:40:48.874Z,101512.69
2023-01-23T14:43:49.558Z,101501.84
2023-01-23T14:46:53.537Z,101520.16
2023-01-23T14:49:54.526Z,101516.31
2023-01-23T14:52:54.607Z,101504.63
2023-01-23T14:55:57.559Z,101521.97
2023-01-23T14:58:58.559Z,101526.09
2023-01-23T15:02:19.773Z,101521.59
2023-01-23T15:05:21.800Z,101528.91
2023-01-23T15:08:34.527Z,101525.63
2023-01-23T15:11:43.546Z,101526.88
2023-01-23T15:14:50.537Z,101532.53
2023-01-23T15:17:50.514Z,101532.03
2023-01-23T15:20:52.530Z,101525.63
2023-01-23T15:23:53.581Z,101535.97
2023-01-23T15:26:55.486Z,101539.47
2023-01-23T15:29:55.560Z,101550.00
2023-01-23T15:32:55.491Z,101532.22
2023-01-23T15:35:55.538Z,101530.62
2023-01-23T15:39:00.533Z,101547.19
2023-01-23T15:42:06.555Z,101544.06
2023-01-23T15:45:07.530Z,101551.09
2023-01-23T15:48:07.565Z,101547.75
2023-01-23T15:51:07.505Z,101555.37
2023-01-23T15:54:07.526Z,101561.78
2023-01-23T15:57:08.801Z,101559.34
2023-01-23T16:00:08.549Z,101552.66
2023-01-23T16:03:12.576Z,101555.53
2023-01-23T16:06:06.362Z,101565.22
2023-01-23T16:09:06.527Z,101554.72
2023-01-23T16:12:06.542Z,101562.56
2023-01-23T16:15:06.543Z,101539.75
2023-01-23T16:18:06.543Z,101570.62
2023-01-23T16:21:06.539Z,101571.72
2023-01-23T16:24:06.733Z,101575.25
2023-01-23T16:27:08.528Z,101574.53
2023-01-23T16:30:09.550Z,101578.09
2023-01-23T16:33:09.601Z,101579.00
2023-01-23T16:36:09.544Z,101582.56
2023-01-23T16:39:09.564Z,101581.91
2023-01-23T16:42:09.516Z,101591.28
2023-01-23T16:45:09.527Z,101598.41
2023-01-23T16:48:15.448Z,101579.72
2023-01-23T16:51:26.534Z,101594.34
2023-01-23T16:54:18.685Z,101589.31
2023-01-23T16:57:18.497Z,101610.06
2023-01-23T17:00:24.902Z,101611.81
2023-01-23T17:03:38.487Z,101591.38
2023-01-23T17:06:31.526Z,101609.28
2023-01-23T17:09:17.528Z,101617.22
2023-01-23T17:12:17.533Z,101618.12
2023-01-23T17:15:17.502Z,101599.19
2023-01-23T17:18:17.545Z,101604.38
2023-01-23T17:21:17.504Z,101601.09
2023-01-23T17:24:17.541Z,101615.72
2023-01-23T17:27:17.492Z,101603.84
2023-01-23T17:30:17.509Z,101608.97
2023-01-23T17:33:17.539Z,101600.47
2023-01-23T17:36:17.520Z,101610.84
2023-01-23T17:39:17.517Z,101604.84
2023-01-23T17:42:17.500Z,101596.25
2023-01-23T17:45:17.566Z,101617.59
2023-01-23T17:48:17.545Z,101605.66
2023-01-23T17:51:17.540Z,101602.38
2023-01-23T17:54:17.543Z,101617.00
2023-01-23T17:57:17.514Z,101621.31
2023-01-23T18:00:17.541Z,101622.16
2023-01-23T18:03:17.490Z,101618.97
2023-01-23T18:06:17.505Z,101607.25
2023-01-23T18:09:17.499Z,101631.09
2023-01-23T18:12:18.525Z,101633.59
2023-01-23T18:15:30.511Z,101636.91
2023-01-23T18:18:45.513Z,101628.50
2023-01-23T18:21:45.531Z,101612.41
2023-01-23T18:24:46.556Z,101632.97
2023-01-23T18:27:50.520Z,101641.72
2023-01-23T18:30:58.538Z,101646.03
2023-01-23T18:34:30.536Z,101646.94
2023-01-23T18:37:48.549Z,101648.03
2023-01-23T18:41:20.495Z,101650.63
2023-01-23T18:44:21.536Z,101648.03
2023-01-23T18:47:25.552Z,101651.38
2023-01-23T18:50:29.498Z,101658.44
2023-01-23T18:53:33.501Z,101664.66
2023-01-23T18:56:59.502Z,101665.69
2023-01-23T19:00:19.481Z,101672.25
2023-01-23T19:03:32.543Z,101670.69
2023-01-23T19:06:34.535Z,101674.16
2023-01-23T19:09:34.589Z,101675.13
2023-01-23T19:12:43.497Z,101677.00
2023-01-23T19:15:49.583Z,101677.00
2023-01-23T19:18:49.536Z,101671.91
2023-01-23T19:21:49.553Z,101665.78
2023-01-23T19:24:49.508Z,101679.28
2023-01-23T19:27:49.525Z,101676.75
2023-01-23T19:30:49.554Z,101678.56
2023-01-23T19:33:49.556Z,101679.50
2023-01-23T19:36:50.544Z,101686.22
2023-01-23T19:39:50.480Z,101681.91
2023-01-23T19:43:09.136Z,101688.88
2023-01-23T19:46:13.488Z,101673.41
2023-01-23T19:49:13.553Z,101681.31
2023-01-23T19:52:13.541Z,101670.22
2023-01-23T19:55:13.537Z,101695.88
2023-01-23T19:58:13.520Z,101695.00
2023-01-23T20:01:13.575Z,101697.72
2023-01-23T20:04:13.494Z,101700.41
2023-01-23T20:07:13.519Z,101703.84
2023-01-23T20:10:13.495Z,101702.94
2023-01-23T20:13:15.508Z,101702.84
2023-01-23T20:16:46.580Z,101698.69
2023-01-23T20:19:46.520Z,101675.03
2023-01-23T20:22:46.489Z,101701.63
2023-01-23T20:25:46.489Z,101699.88
2023-01-23T20:28:46.514Z,101711.03
2023-01-23T20:31:46.571Z,101710.03
2023-01-23T20:34:46.506Z,101710.78
2023-01-23T20:37:46.616Z,101711.75
2023-01-23T20:40:46.544Z,101712.69
2023-01-23T20:43:47.503Z,101720.44
2023-01-23T20:46:47.544Z,101716.13
2023-01-23T20:49:47.501Z,101700.06
2023-01-23T20:53:05.505Z,101718.84
2023-01-23T20:56:12.486Z,101718.81
2023-01-23T20:59:30.537Z,101729.16
2023-01-23T21:02:30.544Z,101725.75
2023-01-23T21:05:30.469Z,101732.66
2023-01-23T21:08:30.539Z,101723.12
2023-01-23T21:11:33.518Z,101728.25
2023-01-23T21:14:34.541Z,101740.47
2023-01-23T21:17:34.515Z,101721.34
2023-01-23T21:20:34.487Z,101743.75
2023-01-23T21:23:34.469Z,101748.19
2023-01-23T21:26:36.507Z,101731.94
2023-01-23T21:29:36.495Z,101723.44
2023-01-23T21:32:36.540Z,101749.94
2023-01-23T21:35:36.539Z,101744.03
2023-01-23T21:38:36.498Z,101735.56
2023-01-23T21:41:36.524Z,101755.37
2023-01-23T21:44:36.478Z,101752.72
2023-01-23T21:47:36.528Z,101753.62
2023-01-23T21:50:36.487Z,101760.47
2023-01-23T21:53:36.477Z,101763.88
2023-01-23T21:56:36.528Z,101766.59
2023-01-23T21:59:36.510Z,101760.56
2023-01-23T22:02:36.534Z,101762.37
2023-01-23T22:05:36.499Z,101754.63
2023-01-23T22:08:36.517Z,101765.78
2023-01-23T22:11:36.535Z,101739.34
2023-01-23T22:14:37.487Z,101763.28
2023-01-23T22:17:37.507Z,101741.91
2023-01-23T22:20:37.520Z,101713.62
2023-01-23T22:23:37.493Z,101748.78
2023-01-23T22:26:37.510Z,101766.81
2023-01-23T22:29:37.519Z,101754.75
2023-01-23T22:32:37.491Z,101760.69
2023-01-23T22:35:37.485Z,101736.94
2023-01-23T22:38:37.522Z,101769.44
2023-01-23T22:41:37.486Z,101774.56
2023-01-23T22:44:37.493Z,101755.03
2023-01-23T22:47:37.520Z,101779.81
2023-01-23T22:50:37.496Z,101777.34
2023-01-23T22:53:37.526Z,101785.06
2023-01-23T22:56:38.501Z,101771.28
2023-01-23T22:59:38.526Z,101754.25
2023-01-23T23:02:38.467Z,101778.16
2023-01-23T23:05:38.521Z,101779.94
2023-01-23T23:08:38.488Z,101784.28
2023-01-23T23:11:40.495Z,101780.00
2023-01-23T23:14:40.492Z,101773.81
2023-01-23T23:17:42.527Z,101782.53
2023-01-23T23:20:42.507Z,101779.72
2023-01-23T23:23:42.651Z,101781.63
2023-01-23T23:26:43.516Z,101779.97
2023-01-23T23:29:43.539Z,101780.84
2023-01-23T23:32:43.519Z,101780.00
2023-01-23T23:35:43.545Z,101780.91
2023-01-23T23:38:43.520Z,101778.28
2023-01-23T23:41:43.473Z,101785.09
2023-01-23T23:44:43.502Z,101782.59
2023-01-23T23:47:43.472Z,101783.53
2023-01-23T23:50:43.486Z,101789.56
2023-01-23T23:53:43.484Z,101792.19
2023-01-23T23:56:43.480Z,101802.63
2023-01-23T23:59:43.509Z,101790.50
